Time;durP1;ratioP1;P1;durP2;ratioP2;P2;SDS_P1;SDS_P2;PMS_P1;PMS_P2;Temp;Humidity;BMP_temperature;BMP_pressure;BME280_temperature;BME280_humidity;BME280_pressure;Samples;Min_cycle;Max_cycle;Signal;HPM_P1;HPM_P2
2024/01/19 00:00:37;;;;;;;;;;;;;;;7.05;78.43;96285.34;4232375;28;6518;-73
2024/01/19 00:02:40;;;;;;;;;;;;;;;7.07;78.49;96285.16;4225727;27;5669;-73
2024/01/19 00:04:44;;;;;;;;;;;;;;;7.09;79.00;96293.69;4233846;28;5776;-72
2024/01/19 00:06:48;;;;;;;;;;;;;;;7.13;78.96;96292.31;4235581;27;5594;-72
2024/01/19 00:08:51;;;;;;;;;;;;;;;7.14;78.71;96300.03;4234457;28;5707;-73
2024/01/19 00:10:54;;;;;;;;;;;;;;;7.18;78.29;96305.72;4234657;28;6280;-73
2024/01/19 00:12:56;;;;;;;;;;;;;;;7.06;78.40;96304.56;4234369;28;5601;-73
2024/01/19 00:14:59;;;;;;;;;;;;;;;6.95;77.49;96308.47;4233827;28;5783;-73
2024/01/19 00:17:02;;;;;;;;;;;;;;;6.82;77.87;96313.56;4234340;28;6319;-73
2024/01/19 00:19:05;;;;;;;;;;;;;;;6.85;78.69;96318.44;4234511;28;5582;-73
2024/01/19 00:21:10;;;;;;;;;;;;;;;6.93;78.61;96323.59;4233917;28;5606;-73
2024/01/19 00:23:13;;;;;;;;;;;;;;;6.96;78.83;96331.94;4234311;28;5610;-73
2024/01/19 00:25:16;;;;;;;;;;;;;;;7.02;78.72;96340.88;4234058;28;5720;-73
2024/01/19 00:27:19;;;;;;;;;;;;;;;7.10;78.55;96343.44;4225790;28;5606;-73
2024/01/19 00:29:22;;;;;;;;;;;;;;;7.12;78.74;96338.81;4234149;28;5606;-72
2024/01/19 00:31:26;;;;;;;;;;;;;;;7.15;78.18;96340.28;4217673;28;5740;-72
2024/01/19 00:33:29;;;;;;;;;;;;;;;7.12;78.50;96340.63;4234244;28;5689;-73
2024/01/19 00:35:32;;;;;;;;;;;;;;;7.11;78.96;96345.06;4233954;28;5593;-73
2024/01/19 00:37:36;;;;;;;;;;;;;;;7.16;78.63;96347.16;4234108;28;5688;-73
2024/01/19 00:39:39;;;;;;;;;;;;;;;7.07;78.64;96358.75;4233745;28;7502;-73
2024/01/19 00:41:43;;;;;;;;;;;;;;;7.12;78.93;96361.66;4234195;28;6528;-73
2024/01/19 00:43:47;;;;;;;;;;;;;;;7.19;78.55;96370.44;4233935;28;5706;-73
2024/01/19 00:45:50;;;;;;;;;;;;;;;7.22;78.42;96367.44;4234008;28;5601;-74
2024/01/19 00:47:53;;;;;;;;;;;;;;;7.15;78.15;96377.91;4234116;28;5594;-74
2024/01/19 00:49:56;;;;;;;;;;;;;;;7.13;78.65;96376.41;4234053;28;5614;-72
2024/01/19 00:51:58;;;;;;;;;;;;;;;7.11;78.19;96375.78;4233962;28;6348;-73
2024/01/19 00:54:02;;;;;;;;;;;;;;;7.06;78.36;96384.22;4233905;28;5685;-73
2024/01/19 00:56:07;;;;;;;;;;;;;;;6.97;78.29;96375.59;4233886;28;5606;-74
2024/01/19 00:58:10;;;;;;;;;;;;;;;7.07;78.33;96385.03;4233685;28;5602;-74
2024/01/19 01:00:13;;;;;;;;;;;;;;;7.11;77.99;96387.13;4233802;28;5602;-74
2024/01/19 01:02:16;;;;;;;;;;;;;;;7.09;77.99;96396.19;4233690;28;5614;-74
2024/01/19 01:04:19;;;;;;;;;;;;;;;7.14;77.90;96385.97;4233732;28;5606;-72
2024/01/19 01:06:22;;;;;;;;;;;;;;;7.21;77.63;96397.38;4233611;28;5601;-72
2024/01/19 01:08:26;;;;;;;;;;;;;;;7.27;77.62;96407.16;4233901;28;6331;-72
2024/01/19 01:10:30;;;;;;;;;;;;;;;7.39;77.75;96408.34;4233477;28;5123;-73
2024/01/19 01:12:33;;;;;;;;;;;;;;;7.38;77.42;96419.06;4233484;28;7659;-73
2024/01/19 01:14:36;;;;;;;;;;;;;;;7.29;77.17;96415.69;4233717;28;6275;-73
2024/01/19 01:16:39;;;;;;;;;;;;;;;7.29;77.80;96413.06;4233479;28;5768;-73
2024/01/19 01:18:43;;;;;;;;;;;;;;;7.27;77.44;96408.00;4233712;28;5775;-73
2024/01/19 01:20:46;;;;;;;;;;;;;;;7.27;77.24;96407.16;4233413;28;5613;-72
2024/01/19 01:22:49;;;;;;;;;;;;;;;7.27;77.00;96418.50;4233506;28;5597;-73
2024/01/19 01:24:52;;;;;;;;;;;;;;;7.27;77.30;96420.31;4233840;28;5594;-73
2024/01/19 01:26:55;;;;;;;;;;;;;;;7.28;77.07;96421.94;4235374;28;5591;-73
2024/01/19 01:28:58;;;;;;;;;;;;;;;7.35;76.98;96422.84;4237076;28;5713;-73
2024/01/19 01:31:01;;;;;;;;;;;;;;;7.37;75.42;96423.50;4237015;28;5636;-73
2024/01/19 01:33:05;;;;;;;;;;;;;;;7.27;75.73;96428.22;4236904;28;5594;-73
2024/01/19 01:35:08;;;;;;;;;;;;;;;7.27;75.61;96434.28;4234806;28;5606;-73
2024/01/19 01:37:11;;;;;;;;;;;;;;;7.21;74.67;96424.47;4237063;28;6280;-74
2024/01/19 01:39:14;;;;;;;;;;;;;;;7.15;75.02;96433.09;4236778;28;5609;-74
2024/01/19 01:41:20;;;;;;;;;;;;;;;7.12;75.45;96440.50;4236995;28;5820;-74
2024/01/19 01:43:26;;;;;;;;;;;;;;;7.09;75.46;96440.88;4236904;28;5730;-73
2024/01/19 01:45:29;;;;;;;;;;;;;;;7.19;75.68;96436.16;4220797;28;5743;-74
2024/01/19 01:47:32;;;;;;;;;;;;;;;7.07;74.26;96445.50;4236938;28;5626;-73
2024/01/19 01:49:35;;;;;;;;;;;;;;;6.98;74.50;96440.31;4236917;28;6315;-73
2024/01/19 01:51:39;;;;;;;;;;;;;;;6.99;75.28;96430.63;4228139;28;5752;-74
2024/01/19 01:53:42;;;;;;;;;;;;;;;7.03;75.38;96431.91;4236939;28;5701;-74
2024/01/19 01:55:46;;;;;;;;;;;;;;;7.08;75.39;96436.63;4236013;28;5804;-72
2024/01/19 01:57:49;;;;;;;;;;;;;;;7.19;75.50;96437.00;4232508;28;5755;-72
2024/01/19 01:59:53;;;;;;;;;;;;;;;7.29;75.36;96436.72;4231025;28;5836;-73
2024/01/19 02:01:57;;;;;;;;;;;;;;;7.19;74.64;96442.25;4223012;28;5818;-73
2024/01/19 02:04:00;;;;;;;;;;;;;;;7.06;74.56;96442.06;4219540;28;5744;-73
2024/01/19 02:06:04;;;;;;;;;;;;;;;6.99;74.95;96446.38;4224121;28;5618;-72
2024/01/19 02:08:07;;;;;;;;;;;;;;;7.05;75.08;96440.44;4226773;28;5590;-72
2024/01/19 02:10:09;;;;;;;;;;;;;;;7.11;75.21;96438.88;4227697;28;5636;-73
2024/01/19 02:12:13;;;;;;;;;;;;;;;7.26;75.22;96447.59;4235495;28;5693;-73
2024/01/19 02:14:16;;;;;;;;;;;;;;;7.32;74.68;96444.25;4220168;28;5685;-72
2024/01/19 02:16:20;;;;;;;;;;;;;;;7.19;73.67;96446.69;4226292;28;6414;-73
2024/01/19 02:18:24;;;;;;;;;;;;;;;7.13;74.33;96457.91;4218613;28;5648;-73
2024/01/19 02:20:28;;;;;;;;;;;;;;;7.18;74.57;96447.69;4223826;28;5882;-74
2024/01/19 02:22:31;;;;;;;;;;;;;;;7.16;74.75;96453.13;4236141;28;5590;-74
2024/01/19 02:24:36;;;;;;;;;;;;;;;7.17;74.70;96452.13;4234937;28;5806;-74
2024/01/19 02:26:39;;;;;;;;;;;;;;;7.07;73.69;96458.63;4225732;28;5653;-74
2024/01/19 02:28:41;;;;;;;;;;;;;;;7.01;73.98;96458.34;4225849;28;5700;-73
2024/01/19 02:30:45;;;;;;;;;;;;;;;6.97;73.85;96454.44;4220652;28;5822;-73
2024/01/19 02:32:47;;;;;;;;;;;;;;;6.94;72.13;96448.75;4229152;28;5680;-73
2024/01/19 02:34:50;;;;;;;;;;;;;;;7.03;72.62;96454.75;4201607;28;5616;-73
2024/01/19 02:36:54;;;;;;;;;;;;;;;7.10;73.68;96450.38;4222378;28;6300;-73
2024/01/19 02:38:57;;;;;;;;;;;;;;;7.08;73.89;96455.00;4220751;28;5614;-72
2024/01/19 02:41:01;;;;;;;;;;;;;;;7.06;72.97;96455.19;4219014;28;5831;-73
2024/01/19 02:43:05;;;;;;;;;;;;;;;6.93;72.76;96463.69;4231836;28;5845;-73
2024/01/19 02:45:08;;;;;;;;;;;;;;;6.86;72.75;96461.94;4235601;28;5606;-73
2024/01/19 02:47:11;;;;;;;;;;;;;;;6.93;73.28;96461.06;4228014;28;5673;-72
2024/01/19 02:49:14;;;;;;;;;;;;;;;6.95;73.05;96469.59;4217752;28;5616;-72
2024/01/19 02:51:17;;;;;;;;;;;;;;;6.84;71.36;96464.75;4229975;28;5745;-73
2024/01/19 02:53:20;;;;;;;;;;;;;;;6.86;72.36;96457.50;4235231;28;5665;-73
2024/01/19 02:55:22;;;;;;;;;;;;;;;6.94;72.70;96460.06;4229733;28;5689;-73
2024/01/19 02:57:26;;;;;;;;;;;;;;;7.03;72.89;96447.69;4223153;28;5622;-73
2024/01/19 02:59:29;;;;;;;;;;;;;;;6.96;72.68;96455.44;4223055;28;5712;-73
2024/01/19 03:01:32;;;;;;;;;;;;;;;6.95;72.88;96453.81;4230017;28;5606;-74
2024/01/19 03:03:34;;;;;;;;;;;;;;;7.00;73.11;96461.16;4235434;28;5633;-74
2024/01/19 03:05:37;;;;;;;;;;;;;;;7.03;73.01;96458.19;4235685;28;5606;-73
2024/01/19 03:07:40;;;;;;;;;;;;;;;6.92;71.98;96462.06;4235527;28;5661;-74
2024/01/19 03:09:43;;;;;;;;;;;;;;;6.96;72.39;96468.59;4235184;28;5820;-73
2024/01/19 03:11:46;;;;;;;;;;;;;;;6.70;67.96;96466.38;4235447;28;5731;-74
2024/01/19 03:13:52;;;;;;;;;;;;;;;6.59;70.62;96469.41;4235291;28;5625;-73
2024/01/19 03:15:57;;;;;;;;;;;;;;;6.60;70.90;96464.97;4235608;28;5613;-73
2024/01/19 03:18:00;;;;;;;;;;;;;;;6.61;70.53;96474.47;4235720;28;5681;-73
2024/01/19 03:20:05;;;;;;;;;;;;;;;6.37;63.96;96472.84;4234939;28;5598;-73
2024/01/19 03:22:08;;;;;;;;;;;;;;;6.18;67.09;96479.34;4235144;28;5609;-74
2024/01/19 03:24:11;;;;;;;;;;;;;;;6.18;67.50;96481.97;4235383;28;5752;-74
2024/01/19 03:26:14;;;;;;;;;;;;;;;6.20;68.38;96479.19;4235260;28;5692;-73
2024/01/19 03:28:17;;;;;;;;;;;;;;;6.23;68.63;96477.03;4235080;28;5593;-74
2024/01/19 03:30:22;;;;;;;;;;;;;;;6.19;67.26;96482.78;4235346;28;5627;-73
2024/01/19 03:32:25;;;;;;;;;;;;;;;6.06;67.69;96480.75;4235163;28;5601;-74
2024/01/19 03:34:28;;;;;;;;;;;;;;;6.02;66.10;96485.53;4235299;28;5607;-74
2024/01/19 03:36:31;;;;;;;;;;;;;;;5.96;66.99;96485.38;4235137;28;5754;-73
2024/01/19 03:38:34;;;;;;;;;;;;;;;5.89;65.06;96497.50;4235164;28;5606;-74
2024/01/19 03:40:37;;;;;;;;;;;;;;;5.73;65.33;96491.34;4234786;28;5820;-74
2024/01/19 03:42:40;;;;;;;;;;;;;;;5.66;65.13;96489.56;4234661;28;5597;-73
2024/01/19 03:44:43;;;;;;;;;;;;;;;5.58;65.35;96490.44;4235403;28;5894;-73
2024/01/19 03:46:47;;;;;;;;;;;;;;;5.51;64.79;96489.47;4234902;28;5594;-73
2024/01/19 03:48:50;;;;;;;;;;;;;;;5.58;66.41;96493.06;4235140;28;5610;-74
2024/01/19 03:50:51;;;;;;;;;;;;;;;5.60;66.83;96498.94;4233455;28;5677;-74
2024/01/19 03:52:54;;;;;;;;;;;;;;;5.68;67.08;96503.34;4234561;28;6425;-74
2024/01/19 03:54:58;;;;;;;;;;;;;;;5.81;67.38;96493.94;4234616;28;5113;-73
2024/01/19 03:57:05;;;;;;;;;;;;;;;5.88;67.20;96495.88;4234735;28;5714;-73
2024/01/19 03:59:08;;;;;;;;;;;;;;;5.88;66.11;96493.25;4234654;28;5700;-73
2024/01/19 04:01:10;;;;;;;;;;;;;;;5.88;66.96;96501.13;4234607;28;5590;-74
2024/01/19 04:03:15;;;;;;;;;;;;;;;5.84;66.26;96498.84;4224292;28;5529;-74
2024/01/19 04:05:19;;;;;;;;;;;;;;;5.80;65.66;96502.81;4234361;28;5602;-74
2024/01/19 04:07:21;;;;;;;;;;;;;;;5.77;65.05;96497.88;4226011;28;5680;-73
2024/01/19 04:09:25;;;;;;;;;;;;;;;5.77;66.11;96497.06;4219225;28;5624;-74
2024/01/19 04:11:27;;;;;;;;;;;;;;;5.79;65.75;96495.94;4234068;28;5912;-74
2024/01/19 04:13:30;;;;;;;;;;;;;;;5.72;64.92;96500.22;4231824;28;5095;-74
2024/01/19 04:15:32;;;;;;;;;;;;;;;5.69;64.62;96500.56;4224208;28;5747;-74
2024/01/19 04:17:34;;;;;;;;;;;;;;;5.64;65.61;96504.66;4234560;28;5601;-73
2024/01/19 04:19:40;;;;;;;;;;;;;;;5.69;63.19;96504.97;4230323;27;5673;-73
2024/01/19 04:21:43;;;;;;;;;;;;;;;5.63;63.47;96505.66;4236023;27;5941;-74
2024/01/19 04:23:46;;;;;;;;;;;;;;;5.63;64.23;96503.84;4225541;27;5839;-74
2024/01/19 04:25:49;;;;;;;;;;;;;;;5.57;62.50;96509.78;4221045;28;5618;-74
2024/01/19 04:27:52;;;;;;;;;;;;;;;5.49;62.35;96509.78;4232963;28;5669;-74
2024/01/19 04:29:54;;;;;;;;;;;;;;;5.48;63.48;96502.91;4225204;28;5677;-75
2024/01/19 04:31:57;;;;;;;;;;;;;;;5.50;63.54;96514.06;4217487;27;5609;-74
2024/01/19 04:34:00;;;;;;;;;;;;;;;5.46;62.34;96516.19;4232956;27;5624;-73
2024/01/19 04:36:04;;;;;;;;;;;;;;;5.43;61.16;96513.88;4230431;28;5685;-74
2024/01/19 04:38:07;;;;;;;;;;;;;;;5.38;61.53;96508.34;4227567;28;5617;-73
2024/01/19 04:40:10;;;;;;;;;;;;;;;5.34;62.78;96516.72;4226682;27;5669;-73
2024/01/19 04:42:13;;;;;;;;;;;;;;;5.46;63.75;96521.44;4230871;27;5694;-73
2024/01/19 04:44:16;;;;;;;;;;;;;;;5.45;62.00;96530.28;4224647;28;5861;-73
2024/01/19 04:46:19;;;;;;;;;;;;;;;5.37;61.11;96532.09;4229848;28;6275;-73
2024/01/19 04:48:22;;;;;;;;;;;;;;;5.17;61.08;96532.47;4230117;27;5587;-72
2024/01/19 04:50:25;;;;;;;;;;;;;;;4.96;60.07;96534.75;4225855;27;5808;-72
2024/01/19 04:52:29;;;;;;;;;;;;;;;4.84;61.06;96546.56;4224069;27;5680;-72
2024/01/19 04:54:32;;;;;;;;;;;;;;;4.78;60.36;96557.69;4228886;28;5610;-74
2024/01/19 04:56:35;;;;;;;;;;;;;;;4.60;60.26;96565.69;4223814;28;6296;-73
2024/01/19 04:58:39;;;;;;;;;;;;;;;4.62;61.05;96561.91;4225632;27;5688;-75
2024/01/19 05:00:42;;;;;;;;;;;;;;;4.61;61.29;96556.84;4222376;28;5759;-73
2024/01/19 05:02:45;;;;;;;;;;;;;;;4.64;60.32;96559.97;4229229;27;5689;-73
2024/01/19 05:04:47;;;;;;;;;;;;;;;4.63;60.28;96558.31;4220406;28;5843;-74
2024/01/19 05:06:50;;;;;;;;;;;;;;;4.61;61.31;96562.06;4217118;28;5837;-74
2024/01/19 05:08:55;;;;;;;;;;;;;;;4.63;61.63;96566.16;4229390;28;5625;-73
2024/01/19 05:10:58;;;;;;;;;;;;;;;4.66;58.62;96588.63;4230587;27;5697;-73
2024/01/19 05:13:03;;;;;;;;;;;;;;;4.43;57.66;96574.50;4228168;28;5822;-73
2024/01/19 05:15:06;;;;;;;;;;;;;;;4.30;58.42;96569.69;4225620;27;5459;-73
2024/01/19 05:17:09;;;;;;;;;;;;;;;4.42;60.14;96563.22;4226470;28;8153;-73
2024/01/19 05:19:12;;;;;;;;;;;;;;;4.54;58.66;96572.41;4231024;28;5735;-72
2024/01/19 05:21:15;;;;;;;;;;;;;;;4.47;59.22;96573.19;4217818;28;5770;-74
2024/01/19 05:23:19;;;;;;;;;;;;;;;4.53;60.54;96576.00;4231503;28;5734;-73
2024/01/19 05:25:23;;;;;;;;;;;;;;;4.68;60.79;96581.41;4225599;28;5685;-73
2024/01/19 05:27:26;;;;;;;;;;;;;;;4.74;59.07;96577.31;4224894;28;6325;-73
2024/01/19 05:29:29;;;;;;;;;;;;;;;4.80;59.73;96595.00;4219573;28;5754;-72
2024/01/19 05:31:32;;;;;;;;;;;;;;;4.68;58.10;96599.75;4226864;28;5651;-73
2024/01/19 05:33:37;;;;;;;;;;;;;;;4.58;58.55;96606.91;4225563;28;5651;-73
2024/01/19 05:35:43;;;;;;;;;;;;;;;4.65;57.93;96603.50;4221471;28;5709;-73
2024/01/19 05:37:46;;;;;;;;;;;;;;;4.66;58.86;96607.75;4221669;28;5739;-72
2024/01/19 05:39:49;;;;;;;;;;;;;;;4.64;58.73;96617.59;4225060;28;5663;-73
2024/01/19 05:41:53;;;;;;;;;;;;;;;4.61;58.89;96617.88;4229782;28;6366;-73
2024/01/19 05:43:56;;;;;;;;;;;;;;;4.62;58.63;96611.66;4233432;28;5647;-73
2024/01/19 05:45:59;;;;;;;;;;;;;;;4.68;59.75;96610.22;4233489;28;5670;-73
2024/01/19 05:48:01;;;;;;;;;;;;;;;4.78;59.82;96615.31;4228090;28;5667;-73
2024/01/19 05:50:04;;;;;;;;;;;;;;;4.80;59.84;96611.53;4219713;28;5721;-73
2024/01/19 05:52:07;;;;;;;;;;;;;;;4.87;60.30;96622.19;4229020;28;5827;-74
2024/01/19 05:54:11;;;;;;;;;;;;;;;4.93;60.50;96616.31;4221055;28;5876;-74
2024/01/19 05:56:14;;;;;;;;;;;;;;;5.02;59.87;96635.47;4224995;28;5828;-73
2024/01/19 05:58:18;;;;;;;;;;;;;;;4.94;58.18;96623.19;4232056;28;5636;-73
2024/01/19 06:00:22;;;;;;;;;;;;;;;4.91;58.97;96632.19;4224620;28;5655;-74
2024/01/19 06:02:25;;;;;;;;;;;;;;;4.89;58.48;96625.47;4224776;28;5710;-73
2024/01/19 06:04:27;;;;;;;;;;;;;;;5.01;59.59;96637.28;4225304;28;5639;-73
2024/01/19 06:06:30;;;;;;;;;;;;;;;5.10;59.95;96636.31;4232235;28;5663;-73
2024/01/19 06:08:33;;;;;;;;;;;;;;;5.16;60.23;96645.31;4217140;28;5849;-73
2024/01/19 06:10:36;;;;;;;;;;;;;;;5.26;60.17;96659.06;4225834;28;5659;-73
2024/01/19 06:12:39;;;;;;;;;;;;;;;5.23;59.47;96655.00;4232962;28;5726;-73
2024/01/19 06:14:42;;;;;;;;;;;;;;;5.23;59.52;96662.84;4233254;28;5754;-74
2024/01/19 06:16:45;;;;;;;;;;;;;;;5.22;59.27;96653.34;4226783;28;5097;-74
2024/01/19 06:18:48;;;;;;;;;;;;;;;5.21;59.21;96651.72;4231469;28;5665;-73
2024/01/19 06:20:51;;;;;;;;;;;;;;;5.22;58.64;96655.16;4233464;28;5742;-73
2024/01/19 06:22:55;;;;;;;;;;;;;;;5.30;57.12;96675.28;4230322;27;5866;-74
2024/01/19 06:24:58;;;;;;;;;;;;;;;5.10;56.81;96667.75;4236251;28;6349;-73
2024/01/19 06:27:00;;;;;;;;;;;;;;;5.07;56.69;96678.53;4236301;28;5817;-72
2024/01/19 06:29:03;;;;;;;;;;;;;;;5.12;57.81;96678.06;4231654;28;6345;-72
2024/01/19 06:31:10;;;;;;;;;;;;;;;5.12;58.41;96681.50;4236229;28;5651;-73
2024/01/19 06:33:12;;;;;;;;;;;;;;;5.07;57.97;96689.03;4235671;28;5734;-73
2024/01/19 17:58:50;;;;;;;;;;;;;;;1.51;55.43;97124.34;4248737;27;10326;-72
2024/01/19 18:00:53;;;;;;;;;;;;;;;1.81;55.60;97131.34;4246919;27;5702;-72
2024/01/19 18:02:56;;;;;;;;;;;;;;;1.99;54.87;97142.00;4247402;27;6355;-72
2024/01/19 18:05:00;;;;;;;;;;;;;;;2.13;54.95;97127.75;4248282;27;5614;-73
2024/01/19 18:07:03;;;;;;;;;;;;;;;2.26;53.47;97126.56;4248756;27;5655;-73
2024/01/19 18:09:07;;;;;;;;;;;;;;;2.30;53.34;97150.63;4248791;27;5725;-73
2024/01/19 18:11:11;;;;;;;;;;;;;;;2.33;53.54;97153.78;4247966;27;5768;-73
2024/01/19 18:13:15;;;;;;;;;;;;;;;2.43;53.23;97145.97;4248852;27;5707;-73
2024/01/19 18:15:19;;;;;;;;;;;;;;;2.43;52.62;97139.94;4247365;27;5825;-73
2024/01/19 18:17:22;;;;;;;;;;;;;;;2.37;52.78;97158.72;4242722;27;5733;-71
2024/01/19 18:19:24;;;;;;;;;;;;;;;2.36;52.52;97147.47;4239824;27;5746;-73
2024/01/19 18:21:28;;;;;;;;;;;;;;;2.41;52.65;97152.31;4239557;27;5602;-73
2024/01/19 18:23:36;;;;;;;;;;;;;;;2.53;53.05;97157.28;4248221;27;5700;-73
2024/01/19 18:25:41;;;;;;;;;;;;;;;2.62;52.93;97150.44;4248063;27;6443;-72
2024/01/19 18:27:42;;;;;;;;;;;;;;;2.67;51.90;97160.44;4247860;27;5610;-72
2024/01/19 18:29:45;;;;;;;;;;;;;;;2.71;51.87;97161.81;4221146;28;5608;-72
2024/01/19 18:31:53;;;;;;;;;;;;;;;2.76;50.84;97162.25;4240413;27;5864;-73
2024/01/19 18:33:57;;;;;;;;;;;;;;;2.64;51.24;97166.78;4246152;27;5722;-73
2024/01/19 18:36:03;;;;;;;;;;;;;;;2.63;51.55;97178.19;4241988;27;5598;-73
2024/01/19 18:38:06;;;;;;;;;;;;;;;2.60;51.53;97165.38;4242757;27;5668;-73
2024/01/19 18:40:11;;;;;;;;;;;;;;;2.66;50.42;97179.69;4244523;27;5678;-72
2024/01/19 18:42:14;;;;;;;;;;;;;;;2.67;51.39;97181.34;4243550;27;5855;-72
2024/01/19 18:44:19;;;;;;;;;;;;;;;2.71;51.47;97178.31;4247851;27;7660;-73
2024/01/19 18:46:22;;;;;;;;;;;;;;;2.78;50.58;97181.22;4247964;27;5606;-73
2024/01/19 18:48:26;;;;;;;;;;;;;;;2.75;50.53;97178.88;4247128;27;5801;-73
2024/01/19 18:50:29;;;;;;;;;;;;;;;2.65;51.24;97186.69;4246249;27;5602;-73
2024/01/19 18:52:33;;;;;;;;;;;;;;;2.69;50.33;97175.00;4241118;27;5074;-73
2024/01/19 18:54:38;;;;;;;;;;;;;;;2.68;50.98;97183.81;4246707;27;7683;-73
2024/01/19 18:56:41;;;;;;;;;;;;;;;2.68;49.93;97178.59;4239294;27;7300;-73
2024/01/19 18:58:45;;;;;;;;;;;;;;;2.66;50.22;97179.69;4233622;27;5578;-73
2024/01/19 19:00:50;;;;;;;;;;;;;;;2.60;49.84;97192.34;4231565;28;5764;-73
2024/01/19 19:02:54;;;;;;;;;;;;;;;2.57;49.87;97184.75;4235769;28;6372;-73
2024/01/19 19:04:58;;;;;;;;;;;;;;;2.53;50.52;97179.94;4227662;28;5684;-73
2024/01/19 19:07:02;;;;;;;;;;;;;;;2.52;50.04;97180.91;4235958;28;5699;-72
2024/01/19 19:09:05;;;;;;;;;;;;;;;2.54;49.63;97174.59;4235736;28;5907;-72
2024/01/19 19:11:11;;;;;;;;;;;;;;;2.48;49.92;97190.75;4235953;28;5746;-72
2024/01/19 19:13:14;;;;;;;;;;;;;;;2.46;50.61;97186.63;4231957;28;5673;-72
2024/01/19 19:15:17;;;;;;;;;;;;;;;2.47;50.13;97190.91;4231960;28;5601;-72
2024/01/19 19:17:20;;;;;;;;;;;;;;;2.47;50.47;97185.69;4235387;28;5610;-73
2024/01/19 19:19:25;;;;;;;;;;;;;;;2.53;49.94;97198.22;4235339;28;5744;-72
2024/01/19 19:21:30;;;;;;;;;;;;;;;2.50;50.37;97198.47;4235562;27;5651;-73
2024/01/19 19:23:33;;;;;;;;;;;;;;;2.49;49.94;97196.81;4235879;28;5651;-74
2024/01/19 19:25:36;;;;;;;;;;;;;;;2.42;49.83;97198.31;4235541;28;5754;-73
2024/01/19 19:27:38;;;;;;;;;;;;;;;2.42;50.52;97201.75;4235686;27;5763;-70
2024/01/19 19:29:41;;;;;;;;;;;;;;;2.48;50.26;97197.75;4219567;28;5662;-73
2024/01/19 19:31:44;;;;;;;;;;;;;;;2.42;49.43;97185.25;4235242;28;5700;-73
2024/01/19 19:33:47;;;;;;;;;;;;;;;2.32;49.28;97187.84;4235483;28;5598;-70
2024/01/19 19:35:50;;;;;;;;;;;;;;;2.22;49.97;97197.41;4235875;28;5672;-74
2024/01/19 19:37:54;;;;;;;;;;;;;;;2.31;50.00;97202.66;4235691;27;5775;-71
2024/01/19 19:39:57;;;;;;;;;;;;;;;2.30;49.79;97203.63;4235773;28;5655;-71
2024/01/19 19:42:01;;;;;;;;;;;;;;;2.30;49.64;97208.03;4235265;28;5834;-75
2024/01/19 19:44:04;;;;;;;;;;;;;;;2.28;49.56;97204.72;4235332;28;7467;-72
2024/01/19 19:46:09;;;;;;;;;;;;;;;2.27;49.42;97211.72;4227057;28;5689;-72
2024/01/19 19:48:12;;;;;;;;;;;;;;;2.27;49.98;97213.50;4226559;28;5667;-70
2024/01/19 19:50:15;;;;;;;;;;;;;;;2.36;49.73;97219.69;4235743;28;5773;-72
2024/01/19 19:52:18;;;;;;;;;;;;;;;2.37;49.68;97213.53;4227084;28;5594;-72
2024/01/19 19:54:22;;;;;;;;;;;;;;;2.38;49.10;97209.94;4226962;28;6287;-69
2024/01/19 19:56:25;;;;;;;;;;;;;;;2.41;49.71;97214.94;4235033;28;5606;-73
2024/01/19 19:58:29;;;;;;;;;;;;;;;2.49;49.93;97222.91;4235310;28;5590;-72
2024/01/19 20:00:32;;;;;;;;;;;;;;;2.57;49.81;97223.91;4235060;28;5621;-71
2024/01/19 20:02:34;;;;;;;;;;;;;;;2.58;49.10;97216.88;4235251;28;5606;-72
2024/01/19 20:04:37;;;;;;;;;;;;;;;2.53;49.26;97238.19;4235084;28;5651;-71
2024/01/19 20:06:41;;;;;;;;;;;;;;;2.50;49.29;97237.63;4235353;28;5647;-73
2024/01/19 20:08:44;;;;;;;;;;;;;;;2.58;49.90;97243.81;4235120;27;5675;-73
2024/01/19 20:10:48;;;;;;;;;;;;;;;2.57;49.41;97241.34;4225673;28;5693;-72
2024/01/19 20:12:53;;;;;;;;;;;;;;;2.58;49.09;97238.59;4208762;28;5636;-71
2024/01/19 20:14:56;;;;;;;;;;;;;;;2.58;48.63;97235.97;4227106;28;5681;-70
2024/01/19 20:16:58;;;;;;;;;;;;;;;2.42;48.73;97247.88;4234502;28;5613;-71
2024/01/19 20:19:01;;;;;;;;;;;;;;;2.39;49.48;97237.72;4234304;28;5635;-71
2024/01/19 20:21:05;;;;;;;;;;;;;;;2.54;49.10;97241.63;4235037;27;5659;-71
2024/01/19 20:23:07;;;;;;;;;;;;;;;2.51;49.01;97237.50;4226504;28;5673;-73
2024/01/19 20:25:11;;;;;;;;;;;;;;;2.54;48.47;97246.84;4235125;28;5327;-71
2024/01/19 20:27:17;;;;;;;;;;;;;;;2.47;48.43;97250.91;4234683;28;7632;-70
2024/01/19 20:29:20;;;;;;;;;;;;;;;2.46;48.55;97246.66;4221503;28;5665;-70
2024/01/19 20:31:24;;;;;;;;;;;;;;;2.39;48.86;97237.72;4223269;28;5651;-72
2024/01/19 20:33:27;;;;;;;;;;;;;;;2.50;49.49;97250.69;4234129;28;5602;-71
2024/01/19 20:35:30;;;;;;;;;;;;;;;2.61;49.46;97253.19;4232618;28;5647;-72
2024/01/19 20:37:33;;;;;;;;;;;;;;;2.68;49.40;97243.84;4234109;28;5689;-70
2024/01/19 20:39:37;;;;;;;;;;;;;;;2.72;49.48;97258.31;4227782;28;5866;-71
2024/01/19 20:41:40;;;;;;;;;;;;;;;2.78;49.29;97249.09;4226153;28;5658;-71
2024/01/19 20:43:45;;;;;;;;;;;;;;;2.84;49.54;97244.19;4226134;28;5771;-72
2024/01/19 20:45:48;;;;;;;;;;;;;;;2.88;49.01;97245.56;4217902;28;5685;-71
2024/01/19 20:47:51;;;;;;;;;;;;;;;2.78;48.72;97244.72;4226468;28;5836;-70
2024/01/19 20:49:53;;;;;;;;;;;;;;;2.75;48.98;97244.97;4234121;28;5610;-70
2024/01/19 20:51:56;;;;;;;;;;;;;;;2.72;48.32;97242.66;4233282;28;5677;-72
2024/01/19 20:53:59;;;;;;;;;;;;;;;2.68;48.91;97249.06;4219231;28;5772;-70
2024/01/19 20:56:02;;;;;;;;;;;;;;;2.63;48.76;97251.28;4234081;28;6410;-70
2024/01/19 20:58:05;;;;;;;;;;;;;;;2.60;48.78;97246.28;4231539;27;5610;-69
2024/01/19 21:00:11;;;;;;;;;;;;;;;2.68;48.97;97237.81;4229104;28;6291;-69
2024/01/19 21:02:14;;;;;;;;;;;;;;;2.75;48.40;97259.81;4234347;28;5651;-72
2024/01/19 21:04:17;;;;;;;;;;;;;;;2.82;48.67;97243.47;4231504;27;5630;-71
2024/01/19 21:06:20;;;;;;;;;;;;;;;2.79;48.03;97267.25;4226584;28;5829;-71
2024/01/19 21:08:26;;;;;;;;;;;;;;;2.78;48.48;97251.72;4224621;28;5857;-71
2024/01/19 21:10:30;;;;;;;;;;;;;;;2.87;48.84;97258.75;4226184;28;5677;-71
2024/01/19 21:12:34;;;;;;;;;;;;;;;2.84;48.38;97257.25;4232540;28;5609;-70
2024/01/19 21:14:41;;;;;;;;;;;;;;;2.77;48.34;97271.78;4226346;28;5689;-72
2024/01/19 21:16:46;;;;;;;;;;;;;;;2.79;48.52;97271.66;4229531;28;5733;-71
2024/01/19 21:18:52;;;;;;;;;;;;;;;2.86;48.86;97275.38;4226644;28;5605;-72
2024/01/19 21:20:55;;;;;;;;;;;;;;;2.89;48.18;97267.28;4230547;28;6414;-71
2024/01/19 21:23:02;;;;;;;;;;;;;;;2.86;47.95;97278.00;4226532;28;5624;-71
2024/01/19 21:25:06;;;;;;;;;;;;;;;2.84;48.61;97280.75;4231439;28;5784;-70
2024/01/19 21:27:14;;;;;;;;;;;;;;;2.87;48.43;97285.69;4233260;28;5689;-71
2024/01/19 21:29:17;;;;;;;;;;;;;;;2.81;47.49;97281.00;4218290;28;6190;-71
2024/01/19 21:31:20;;;;;;;;;;;;;;;2.76;47.98;97277.97;4225531;28;5128;-71
2024/01/19 21:33:24;;;;;;;;;;;;;;;2.81;48.00;97272.34;4216801;28;6371;-71
2024/01/19 21:35:26;;;;;;;;;;;;;;;2.81;47.87;97281.00;4231366;28;5709;-71
2024/01/19 21:37:30;;;;;;;;;;;;;;;2.79;48.27;97287.31;4231324;28;5609;-71
2024/01/19 21:39:33;;;;;;;;;;;;;;;2.86;48.23;97293.66;4227887;28;6604;-71
2024/01/19 21:41:37;;;;;;;;;;;;;;;2.84;47.26;97283.34;4232116;28;5103;-71
2024/01/19 21:43:41;;;;;;;;;;;;;;;2.75;47.99;97286.75;4225316;28;5685;-72
2024/01/19 21:45:44;;;;;;;;;;;;;;;2.78;47.99;97293.50;4225288;28;6336;-71
2024/01/19 21:47:47;;;;;;;;;;;;;;;2.71;47.57;97290.56;4232493;28;5610;-72
2024/01/19 21:49:52;;;;;;;;;;;;;;;2.66;47.82;97284.09;4232288;28;5598;-72
2024/01/19 21:51:56;;;;;;;;;;;;;;;2.66;48.37;97292.75;4228372;28;5947;-71
2024/01/19 21:53:59;;;;;;;;;;;;;;;2.71;47.47;97295.78;4232882;28;5781;-71
2024/01/19 21:56:05;;;;;;;;;;;;;;;2.68;48.08;97303.06;4210100;28;5627;-71
2024/01/19 21:58:09;;;;;;;;;;;;;;;2.72;48.32;97299.22;4233600;28;5598;-70
2024/01/19 22:00:12;;;;;;;;;;;;;;;2.75;47.75;97306.81;4234120;28;5688;-71
2024/01/19 22:02:15;;;;;;;;;;;;;;;2.68;47.35;97316.94;4233410;28;5655;-71
2024/01/19 22:04:19;;;;;;;;;;;;;;;2.55;47.64;97316.34;4216710;28;5720;-70
2024/01/19 22:06:23;;;;;;;;;;;;;;;2.53;47.75;97302.59;4230021;28;5985;-70
2024/01/19 22:08:26;;;;;;;;;;;;;;;2.54;47.75;97319.91;4228952;28;5717;-71
2024/01/19 22:10:29;;;;;;;;;;;;;;;2.49;47.64;97319.47;4225201;28;5646;-71
2024/01/19 22:12:31;;;;;;;;;;;;;;;2.45;48.09;97316.28;4229779;28;5613;-71
2024/01/19 22:14:34;;;;;;;;;;;;;;;2.33;48.04;97318.16;4230579;28;5601;-70
2024/01/19 22:16:37;;;;;;;;;;;;;;;2.32;48.25;97326.94;4216491;28;5516;-70
2024/01/19 22:18:40;;;;;;;;;;;;;;;2.27;48.06;97331.72;4222315;28;6947;-71
2024/01/19 22:20:42;;;;;;;;;;;;;;;2.19;48.15;97325.50;4233342;28;5697;-71
2024/01/19 22:22:46;;;;;;;;;;;;;;;2.19;48.17;97318.50;4224760;28;5888;-70